Time;durP1;ratioP1;P1;durP2;ratioP2;P2;SDS_P1;SDS_P2;PMS_P1;PMS_P2;Temp;Humidity;BMP_temperature;BMP_pressure;BME280_temperature;BME280_humidity;BME280_pressure;Samples;Min_cycle;Max_cycle;Signal;HPM_P1;HPM_P2
2021/01/28 00:02:19;;;;;;;13.30;7.83;;;5.40;93.70;;;;;;5011869;28;20194;-77
2021/01/28 00:04:45;;;;;;;9.70;6.90;;;5.40;93.80;;;;;;5012148;28;20227;-77
2021/01/28 00:07:10;;;;;;;13.90;8.37;;;5.40;93.80;;;;;;4994146;28;20186;-75
2021/01/28 00:09:36;;;;;;;23.37;7.80;;;5.40;93.80;;;;;;5011153;28;20174;-75
2021/01/28 00:12:02;;;;;;;11.63;7.67;;;5.40;93.80;;;;;;5013157;28;20191;-76
2021/01/28 00:14:28;;;;;;;13.77;8.43;;;5.40;93.80;;;;;;5011121;28;20648;-75
2021/01/28 00:16:54;;;;;;;14.93;7.43;;;5.40;93.80;;;;;;5009012;28;20485;-75
2021/01/28 00:19:19;;;;;;;17.40;7.70;;;5.40;93.80;;;;;;5011691;28;20744;-75
2021/01/28 00:21:45;;;;;;;13.27;7.00;;;5.40;93.80;;;;;;5011320;28;20218;-75
2021/01/28 00:24:10;;;;;;;14.80;7.10;;;5.40;93.80;;;;;;5011550;28;20167;-77
2021/01/28 00:26:36;;;;;;;18.13;7.83;;;5.40;93.80;;;;;;4993545;28;20175;-75
2021/01/28 00:29:03;;;;;;;18.57;9.47;;;5.40;93.80;;;;;;5010267;28;20175;-75
2021/01/28 00:31:32;;;;;;;18.60;8.70;;;5.40;93.90;;;;;;5011045;28;20621;-75
2021/01/28 00:33:58;;;;;;;14.77;8.93;;;5.40;93.90;;;;;;5011444;28;20422;-75
2021/01/28 00:36:23;;;;;;;17.33;8.60;;;5.40;93.90;;;;;;5011859;28;20508;-74
2021/01/28 00:38:49;;;;;;;16.70;7.77;;;5.40;93.90;;;;;;5011976;28;20437;-75
2021/01/28 00:41:15;;;;;;;10.90;7.87;;;5.40;93.90;;;;;;5010528;28;20659;-75
2021/01/28 00:43:41;;;;;;;15.23;8.00;;;5.40;94.00;;;;;;5013462;28;20203;-75
2021/01/28 00:46:08;;;;;;;11.90;8.03;;;5.40;94.00;;;;;;5018939;28;20783;-74
2021/01/28 00:48:34;;;;;;;17.03;8.60;;;5.40;94.00;;;;;;5013453;28;20497;-77
2021/01/28 00:51:02;;;;;;;17.00;8.60;;;5.40;94.10;;;;;;5010597;28;20449;-76
2021/01/28 00:53:28;;;;;;;13.20;7.30;;;5.40;94.10;;;;;;5012211;28;20417;-76
2021/01/28 00:55:54;;;;;;;14.27;6.63;;;5.40;94.10;;;;;;5010937;28;20425;-74
2021/01/28 00:58:35;;;;;;;13.30;7.20;;;5.40;94.10;;;;;;5010470;28;20911;-75
2021/01/28 01:01:01;;;;;;;13.27;7.00;;;5.40;94.10;;;;;;5009801;28;20511;-76
2021/01/28 01:03:28;;;;;;;21.60;8.50;;;5.40;94.10;;;;;;5009622;28;20462;-75
2021/01/28 01:05:55;;;;;;;14.67;7.20;;;5.40;94.10;;;;;;5010178;28;20406;-74
2021/01/28 01:08:31;;;;;;;17.73;6.87;;;5.40;94.10;;;;;;5009672;28;20434;-74
2021/01/28 01:11:10;;;;;;;14.17;7.07;;;5.40;94.10;;;;;;5010051;28;20465;-77
2021/01/28 01:13:39;;;;;;;17.03;6.80;;;5.40;94.10;;;;;;5010179;28;20927;-76
2021/01/28 01:16:14;;;;;;;16.63;6.77;;;5.40;94.10;;;;;;5013944;28;20947;-76
2021/01/28 01:18:46;;;;;;;11.83;7.23;;;5.40;94.10;;;;;;5000454;28;20973;-75
2021/01/28 01:21:13;;;;;;;12.50;7.53;;;5.40;94.10;;;;;;5014303;28;20480;-75
2021/01/28 01:23:38;;;;;;;14.40;7.07;;;5.40;94.30;;;;;;5013463;28;21009;-76
2021/01/28 01:26:13;;;;;;;12.33;5.63;;;5.40;94.10;;;;;;5013393;28;20429;-77
2021/01/28 01:28:39;;;;;;;12.50;6.20;;;5.40;94.10;;;;;;5012570;28;20500;-75
2021/01/28 01:31:13;;;;;;;14.63;7.20;;;5.40;94.10;;;;;;5013848;28;20475;-73
2021/01/28 01:33:40;;;;;;;19.13;7.90;;;5.40;94.10;;;;;;5012621;28;20450;-74
2021/01/28 01:36:11;;;;;;;13.83;7.30;;;5.40;94.40;;;;;;5012754;28;20418;-74
2021/01/28 01:38:58;;;;;;;12.20;7.00;;;5.40;94.10;;;;;;5012776;28;21128;-76
2021/01/28 01:41:34;;;;;;;19.73;8.33;;;5.30;94.00;;;;;;5012657;28;20505;-76
2021/01/28 01:44:01;;;;;;;13.57;7.67;;;5.40;94.10;;;;;;5011885;28;20458;-76
2021/01/28 01:46:29;;;;;;;12.80;6.53;;;5.40;94.10;;;;;;5030121;28;20171;-76
2021/01/28 01:49:00;;;;;;;18.60;6.20;;;5.40;94.10;;;;;;5015084;28;20517;-76
2021/01/28 01:51:36;;;;;;;12.83;7.13;;;5.40;94.10;;;;;;5014489;28;20433;-76
2021/01/28 01:54:24;;;;;;;13.90;6.67;;;5.40;94.10;;;;;;4996594;28;20435;-75
2021/01/28 01:56:59;;;;;;;14.67;5.67;;;5.40;94.00;;;;;;4993267;28;20414;-77
2021/01/28 01:59:34;;;;;;;15.73;5.70;;;5.40;94.00;;;;;;4993278;28;20497;-75
2021/01/28 02:02:34;;;;;;;13.23;7.03;;;5.40;94.00;;;;;;4999978;28;20433;-75
2021/01/28 02:05:24;;;;;;;10.30;6.40;;;5.40;93.90;;;;;;5013959;28;20406;-75
2021/01/28 02:08:16;;;;;;;11.73;6.53;;;5.40;93.90;;;;;;4994776;28;20502;-75
2021/01/28 02:11:05;;;;;;;12.07;5.17;;;5.30;93.80;;;;;;5013162;28;20415;-76
2021/01/28 02:13:51;;;;;;;8.87;5.30;;;5.30;93.80;;;;;;5012909;28;20803;-74
2021/01/28 02:16:38;;;;;;;12.00;5.77;;;5.30;93.70;;;;;;5012851;28;20410;-76
2021/01/28 02:19:46;;;;;;;10.27;6.03;;;5.30;93.70;;;;;;5011888;28;20460;-75
2021/01/28 02:22:12;;;;;;;11.67;6.07;;;5.20;93.60;;;;;;5013368;28;20457;-75
2021/01/28 02:24:45;;;;;;;16.60;6.40;;;5.20;93.60;;;;;;4979833;28;20947;-74
2021/01/28 02:27:14;;;;;;;13.07;4.90;;;5.20;93.60;;;;;;5011270;28;20960;-76
2021/01/28 02:29:56;;;;;;;18.70;6.67;;;5.20;93.60;;;;;;5011706;28;20844;-77
2021/01/28 02:32:22;;;;;;;9.33;5.87;;;5.20;93.50;;;;;;5028459;28;20434;-75
2021/01/28 02:35:09;;;;;;;14.87;6.30;;;5.20;93.60;;;;;;5011939;28;20199;-74
2021/01/28 02:37:35;;;;;;;9.63;5.43;;;5.20;93.50;;;;;;5011667;28;20502;-75
2021/01/28 02:40:14;;;;;;;13.33;5.50;;;5.20;93.50;;;;;;5012946;28;20456;-76
2021/01/28 02:42:58;;;;;;;8.60;4.70;;;5.20;93.50;;;;;;5017086;28;20504;-74
2021/01/28 02:45:41;;;;;;;11.93;6.07;;;5.30;93.50;;;;;;5010866;28;20468;-74
2021/01/28 02:48:21;;;;;;;6.93;4.57;;;5.30;93.50;;;;;;5011009;28;20413;-75
2021/01/28 02:51:09;;;;;;;11.30;6.23;;;5.30;93.50;;;;;;5011384;28;20429;-75
2021/01/28 02:53:42;;;;;;;12.30;5.63;;;5.20;93.40;;;;;;4991299;28;20617;-76
2021/01/28 02:56:10;;;;;;;10.43;5.50;;;5.20;93.30;;;;;;4994787;28;20414;-75
2021/01/28 02:58:35;;;;;;;16.30;7.40;;;5.20;93.30;;;;;;5010911;28;20428;-74
2021/01/28 03:01:09;;;;;;;10.20;5.00;;;5.20;93.30;;;;;;5010779;28;20453;-75
2021/01/28 03:03:35;;;;;;;7.80;5.17;;;5.20;93.30;;;;;;5009794;28;20426;-74
2021/01/28 03:06:02;;;;;;;11.07;5.30;;;5.20;93.40;;;;;;5010749;28;20985;-76
2021/01/28 03:08:28;;;;;;;7.60;5.07;;;5.20;93.70;;;;;;5026999;28;20274;-75
2021/01/28 03:11:20;;;;;;;13.20;5.03;;;5.20;93.40;;;;;;5023994;28;20548;-74
2021/01/28 03:13:48;;;;;;;15.70;6.33;;;5.20;93.40;;;;;;5010598;28;20418;-76
2021/01/28 03:16:32;;;;;;;12.63;6.37;;;5.20;93.40;;;;;;5024716;28;20432;-74
2021/01/28 03:19:19;;;;;;;9.33;5.10;;;5.20;93.40;;;;;;5011620;28;20525;-76
2021/01/28 03:21:46;;;;;;;11.90;5.67;;;5.10;93.50;;;;;;5011341;28;20453;-75
2021/01/28 03:24:21;;;;;;;16.53;5.13;;;5.10;93.60;;;;;;5012491;28;20505;-76
2021/01/28 03:26:58;;;;;;;10.20;5.10;;;5.10;93.70;;;;;;5007864;28;20414;-76
2021/01/28 03:29:24;;;;;;;11.07;6.20;;;5.10;93.70;;;;;;4993261;28;20538;-75
2021/01/28 03:31:50;;;;;;;13.60;5.93;;;5.10;93.80;;;;;;4994463;28;20423;-75
2021/01/28 03:34:19;;;;;;;13.67;5.83;;;5.10;93.90;;;;;;4977153;28;20419;-75
2021/01/28 03:36:46;;;;;;;14.53;6.43;;;5.00;93.90;;;;;;5011634;28;20422;-75
2021/01/28 03:39:16;;;;;;;14.53;4.90;;;5.00;93.90;;;;;;5009783;28;20425;-77
2021/01/28 03:41:42;;;;;;;7.70;5.17;;;5.00;94.00;;;;;;5010445;28;20465;-76
2021/01/28 03:44:09;;;;;;;9.47;5.07;;;5.00;94.10;;;;;;5010763;28;20448;-77
2021/01/28 03:46:35;;;;;;;12.10;5.47;;;5.00;94.10;;;;;;5010778;28;20410;-76
2021/01/28 03:49:01;;;;;;;9.20;6.27;;;5.00;94.10;;;;;;5010566;28;20229;-75
2021/01/28 03:51:50;;;;;;;11.60;6.20;;;4.90;94.10;;;;;;5009319;28;20294;-75
2021/01/28 03:54:19;;;;;;;7.53;4.73;;;4.90;94.20;;;;;;5011785;28;20496;-75
2021/01/28 03:56:50;;;;;;;8.83;5.20;;;4.90;94.50;;;;;;5026650;28;20429;-75
2021/01/28 03:59:17;;;;;;;8.33;4.90;;;4.90;94.20;;;;;;5010159;28;20422;-75
2021/01/28 04:02:15;;;;;;;14.43;5.80;;;4.90;94.20;;;;;;5000561;28;20442;-76
2021/01/28 04:05:15;;;;;;;9.67;5.40;;;4.80;94.30;;;;;;4979921;28;20410;-75
2021/01/28 04:08:00;;;;;;;8.80;5.60;;;4.80;94.30;;;;;;4992137;28;20414;-75
2021/01/28 04:10:38;;;;;;;10.63;5.40;;;4.80;94.40;;;;;;4979581;28;20973;-74
2021/01/28 04:13:06;;;;;;;7.77;5.03;;;4.80;94.40;;;;;;5012909;28;20435;-75
2021/01/28 04:15:38;;;;;;;10.83;4.93;;;4.80;94.40;;;;;;5011957;28;20915;-75
2021/01/28 04:18:06;;;;;;;11.40;5.57;;;4.80;94.50;;;;;;5027899;28;20406;-74
2021/01/28 04:20:39;;;;;;;9.73;4.10;;;4.80;94.50;;;;;;4995439;28;20481;-76
2021/01/28 04:23:09;;;;;;;10.40;6.07;;;4.80;94.60;;;;;;5011192;28;20438;-74
2021/01/28 04:25:54;;;;;;;9.60;5.40;;;4.80;94.90;;;;;;5014222;28;20472;-75
2021/01/28 04:28:19;;;;;;;9.47;5.17;;;4.80;94.60;;;;;;5026864;28;20422;-75
2021/01/28 04:30:58;;;;;;;6.60;4.10;;;4.80;94.50;;;;;;5026257;28;20560;-74
2021/01/28 04:33:24;;;;;;;10.17;4.97;;;4.80;94.50;;;;;;5009833;28;20425;-76
2021/01/28 04:36:02;;;;;;;7.73;5.47;;;4.80;94.50;;;;;;5010520;28;20175;-76
2021/01/28 04:38:28;;;;;;;9.77;5.80;;;4.80;94.60;;;;;;5010411;28;20402;-76
2021/01/28 04:41:24;;;;;;;11.80;5.00;;;4.80;94.90;;;;;;5009302;28;20449;-75
2021/01/28 04:43:56;;;;;;;9.50;5.60;;;4.80;94.60;;;;;;5010094;28;20434;-74
2021/01/28 04:46:40;;;;;;;12.23;6.13;;;4.80;94.60;;;;;;5011217;28;20780;-73
2021/01/28 04:49:35;;;;;;;12.60;5.40;;;4.80;94.60;;;;;;5013195;28;20445;-76
2021/01/28 04:52:22;;;;;;;10.40;5.53;;;4.80;94.60;;;;;;5028374;28;20535;-74
2021/01/28 04:55:16;;;;;;;9.87;6.70;;;4.80;94.70;;;;;;5004316;28;20472;-77
2021/01/28 04:57:50;;;;;;;8.90;6.07;;;4.80;94.70;;;;;;5016395;28;20418;-75
2021/01/28 05:00:29;;;;;;;13.70;7.27;;;4.80;94.70;;;;;;5013014;28;20449;-75
2021/01/28 05:03:15;;;;;;;14.90;6.87;;;4.80;94.70;;;;;;5013279;28;20445;-75
2021/01/28 05:05:55;;;;;;;11.63;7.00;;;4.80;94.70;;;;;;5013371;28;20969;-75
2021/01/28 05:08:31;;;;;;;13.70;7.80;;;4.80;94.70;;;;;;5029304;28;20443;-75
2021/01/28 05:11:31;;;;;;;11.03;7.13;;;4.70;94.70;;;;;;5013447;28;20429;-76
2021/01/28 05:14:19;;;;;;;17.10;7.50;;;4.80;94.80;;;;;;5013906;28;20954;-74
2021/01/28 05:17:05;;;;;;;13.93;7.33;;;4.80;94.80;;;;;;5013169;28;20416;-75
2021/01/28 05:19:52;;;;;;;9.70;6.00;;;4.80;94.80;;;;;;5014388;28;20964;-75
2021/01/28 05:22:40;;;;;;;15.13;7.87;;;4.80;94.80;;;;;;5015221;28;20441;-74
2021/01/28 05:25:30;;;;;;;12.80;6.83;;;4.80;94.70;;;;;;5013860;28;20954;-74
2021/01/28 05:28:21;;;;;;;13.70;7.30;;;4.80;94.70;;;;;;5029650;28;20421;-75
2021/01/28 05:30:47;;;;;;;11.73;6.83;;;4.80;94.70;;;;;;5013361;28;20420;-75
2021/01/28 05:33:26;;;;;;;15.40;6.40;;;4.80;94.70;;;;;;5015238;28;20430;-75
2021/01/28 05:36:14;;;;;;;11.10;5.73;;;4.80;94.70;;;;;;5015498;28;20664;-75
2021/01/28 05:38:57;;;;;;;10.03;5.73;;;4.80;94.70;;;;;;4997987;28;20422;-74
2021/01/28 05:41:40;;;;;;;15.93;6.30;;;4.80;94.70;;;;;;5012733;28;20453;-76
2021/01/28 05:44:29;;;;;;;9.80;5.90;;;4.80;94.70;;;;;;5014223;28;20850;-74
2021/01/28 05:47:09;;;;;;;11.53;6.50;;;4.80;94.60;;;;;;5012455;28;20418;-76
2021/01/28 05:50:30;;;;;;;9.83;5.73;;;4.90;94.70;;;;;;5014175;28;20442;-75
2021/01/28 05:53:11;;;;;;;8.50;4.80;;;4.90;94.60;;;;;;5017584;28;20450;-74
2021/01/28 05:55:39;;;;;;;14.53;5.43;;;4.90;94.60;;;;;;5017405;28;20414;-74
2021/01/28 05:58:54;;;;;;;9.90;5.80;;;4.90;94.60;;;;;;5012469;28;20413;-74
2021/01/28 06:01:35;;;;;;;8.23;5.00;;;4.80;94.50;;;;;;5005039;28;20453;-76
2021/01/28 06:04:25;;;;;;;9.53;4.83;;;4.90;94.60;;;;;;5014582;28;20780;-76
2021/01/28 06:07:25;;;;;;;10.63;5.00;;;4.80;94.50;;;;;;5013823;28;20422;-74
2021/01/28 06:10:20;;;;;;;14.07;5.60;;;4.90;94.50;;;;;;4999295;28;20418;-75
2021/01/28 06:13:36;;;;;;;6.80;5.00;;;4.90;94.90;;;;;;5014179;28;20468;-76
2021/01/28 06:16:33;;;;;;;11.30;6.87;;;4.80;94.40;;;;;;5013712;28;20915;-77
2021/01/28 06:19:29;;;;;;;9.20;5.77;;;4.80;94.30;;;;;;5014091;28;20460;-74
2021/01/28 06:22:39;;;;;;;10.40;5.87;;;4.80;94.30;;;;;;5013106;28;20457;-74
2021/01/28 06:25:48;;;;;;;9.97;6.27;;;4.80;94.30;;;;;;5015147;28;21118;-74
2021/01/28 06:28:33;;;;;;;12.37;6.47;;;4.80;94.30;;;;;;4993321;28;20423;-74
2021/01/28 06:31:31;;;;;;;9.27;5.80;;;4.80;94.30;;;;;;4993976;28;20423;-74
2021/01/28 06:34:33;;;;;;;10.10;6.90;;;4.80;94.20;;;;;;4985397;28;20548;-74
2021/01/28 06:37:55;;;;;;;10.20;6.53;;;4.80;94.20;;;;;;5000747;28;20475;-75
2021/01/28 06:40:47;;;;;;;9.07;5.60;;;4.80;94.30;;;;;;5010845;28;20481;-75
2021/01/28 06:43:48;;;;;;;10.13;5.13;;;4.80;94.30;;;;;;4999650;28;20454;-76
2021/01/28 06:46:53;;;;;;;12.10;6.43;;;4.70;94.30;;;;;;5000757;28;20406;-78
2021/01/28 06:50:02;;;;;;;12.20;6.13;;;4.70;94.30;;;;;;5003204;28;20418;-79
2021/01/28 06:52:53;;;;;;;10.00;5.77;;;4.70;94.30;;;;;;5007248;28;20461;-78
2021/01/28 06:56:13;;;;;;;8.67;5.33;;;4.70;94.30;;;;;;5014658;28;20422;-78
2021/01/28 06:59:21;;;;;;;13.43;5.20;;;4.70;94.30;;;;;;5002505;28;20824;-80
2021/01/28 07:02:12;;;;;;;15.60;6.77;;;4.70;94.30;;;;;;5015302;28;20461;-79
2021/01/28 07:04:56;;;;;;;19.33;8.10;;;4.70;94.30;;;;;;5012973;28;20480;-78
2021/01/28 07:07:30;;;;;;;15.30;6.50;;;4.70;94.30;;;;;;5011649;28;20952;-78
2021/01/28 07:10:36;;;;;;;16.43;8.00;;;4.70;94.30;;;;;;5012899;28;20462;-77
2021/01/28 07:13:38;;;;;;;12.57;6.20;;;4.70;94.30;;;;;;5013978;28;20556;-78
2021/01/28 07:16:24;;;;;;;13.50;7.10;;;4.70;94.40;;;;;;5013432;28;20510;-78
2021/01/28 07:18:53;;;;;;;12.73;7.07;;;4.70;94.40;;;;;;5011605;28;20468;-76
2021/01/28 07:21:36;;;;;;;18.67;8.60;;;4.70;94.30;;;;;;4994889;28;22224;-77
2021/01/28 07:24:24;;;;;;;11.27;5.80;;;4.70;94.40;;;;;;5012059;28;20432;-77
2021/01/28 07:26:57;;;;;;;10.83;6.20;;;4.70;94.40;;;;;;4995016;28;20426;-78
2021/01/28 07:29:33;;;;;;;14.20;7.97;;;4.70;94.40;;;;;;4992200;28;20419;-77
2021/01/28 07:32:07;;;;;;;11.27;5.90;;;4.70;94.40;;;;;;5009878;28;20437;-78
2021/01/28 07:35:29;;;;;;;13.50;6.20;;;4.70;94.40;;;;;;4998931;28;20426;-78
2021/01/28 07:38:32;;;;;;;12.40;5.77;;;4.70;94.40;;;;;;5005903;28;20418;-79
2021/01/28 07:41:16;;;;;;;16.50;6.00;;;4.70;94.40;;;;;;5016228;28;20541;-78
2021/01/28 07:44:35;;;;;;;9.77;6.70;;;4.70;94.40;;;;;;5021702;28;20457;-77
2021/01/28 07:47:33;;;;;;;10.20;5.97;;;4.70;94.40;;;;;;5003215;28;20433;-79
2021/01/28 07:50:25;;;;;;;9.40;5.90;;;4.70;94.40;;;;;;4992777;28;20918;-79
2021/01/28 07:52:55;;;;;;;10.33;5.40;;;4.70;94.40;;;;;;4998821;28;20439;-77
2021/01/28 07:55:41;;;;;;;9.63;5.70;;;4.70;94.50;;;;;;4994256;28;20439;-78
2021/01/28 07:58:36;;;;;;;11.30;5.17;;;4.70;94.50;;;;;;4992217;28;20446;-77
2021/01/28 08:01:11;;;;;;;9.50;4.90;;;4.70;94.50;;;;;;4991617;28;20455;-76
2021/01/28 08:03:58;;;;;;;11.27;5.83;;;4.70;94.50;;;;;;5010864;28;20428;-78
2021/01/28 08:06:24;;;;;;;8.43;5.50;;;4.70;94.50;;;;;;5007471;28;20504;-77
2021/01/28 08:09:04;;;;;;;7.60;5.10;;;4.70;94.50;;;;;;5012179;28;20414;-77
2021/01/28 08:11:31;;;;;;;8.33;5.40;;;4.70;94.50;;;;;;5010561;28;20905;-78
2021/01/28 08:14:02;;;;;;;11.10;5.27;;;4.70;94.60;;;;;;5001517;28;20522;-78
2021/01/28 08:16:30;;;;;;;8.63;4.60;;;4.70;94.60;;;;;;5010206;28;20414;-78
2021/01/28 08:19:05;;;;;;;6.57;4.37;;;4.70;94.60;;;;;;5014070;28;20406;-78
2021/01/28 08:21:32;;;;;;;8.03;4.77;;;4.70;94.60;;;;;;5011288;28;20463;-77
2021/01/28 08:24:21;;;;;;;7.40;4.13;;;4.70;94.70;;;;;;5011352;28;20453;-79
2021/01/28 08:26:47;;;;;;;7.10;4.50;;;4.70;94.70;;;;;;5005751;28;20814;-77
2021/01/28 08:29:19;;;;;;;6.77;4.00;;;4.70;94.70;;;;;;5013703;28;20420;-77
2021/01/28 08:31:49;;;;;;;9.20;4.90;;;4.70;95.00;;;;;;5001134;28;20458;-76
2021/01/28 08:34:27;;;;;;;8.07;4.73;;;4.80;94.80;;;;;;5002062;28;20893;-77
2021/01/28 08:37:10;;;;;;;8.80;4.37;;;4.80;94.80;;;;;;5012673;28;20759;-76
2021/01/28 08:39:36;;;;;;;9.30;4.10;;;4.80;94.80;;;;;;5005651;28;20489;-77
2021/01/28 08:42:09;;;;;;;8.93;5.13;;;4.80;94.80;;;;;;5015464;28;20492;-77
2021/01/28 08:44:36;;;;;;;6.40;3.37;;;4.80;94.80;;;;;;5013038;28;20405;-76
2021/01/28 08:47:10;;;;;;;7.30;4.00;;;4.80;94.80;;;;;;5011303;28;20756;-77
2021/01/28 08:49:37;;;;;;;6.17;3.43;;;4.80;94.90;;;;;;5010030;28;20418;-77
2021/01/28 08:52:14;;;;;;;8.63;4.33;;;4.90;94.90;;;;;;5009926;28;20469;-77
2021/01/28 08:54:42;;;;;;;5.37;2.83;;;4.90;94.90;;;;;;5002701;28;20433;-78
2021/01/28 08:57:15;;;;;;;4.53;2.60;;;4.90;94.90;;;;;;4998513;28;20432;-76
2021/01/28 08:59:45;;;;;;;4.80;2.60;;;4.90;94.80;;;;;;4998558;28;20418;-76
2021/01/28 09:02:14;;;;;;;5.40;2.67;;;4.90;94.90;;;;;;4999120;28;20458;-78
2021/01/28 09:04:48;;;;;;;10.03;3.00;;;4.90;94.90;;;;;;5012171;28;20965;-77
2021/01/28 09:07:49;;;;;;;4.13;2.10;;;4.90;94.90;;;;;;5011916;28;20460;-76
2021/01/28 09:10:34;;;;;;;4.53;2.23;;;4.90;94.80;;;;;;5007026;28;20494;-76
2021/01/28 09:13:26;;;;;;;5.03;2.67;;;4.90;94.80;;;;;;5010312;28;20461;-77
2021/01/28 09:16:15;;;;;;;4.83;2.20;;;4.90;94.80;;;;;;5007756;28;20739;-77
2021/01/28 09:18:42;;;;;;;5.93;1.90;;;4.90;94.70;;;;;;5009569;28;20476;-78
2021/01/28 09:21:17;;;;;;;5.43;1.77;;;4.90;94.80;;;;;;5010427;28;20461;-77
2021/01/28 09:24:04;;;;;;;3.47;2.20;;;4.90;94.80;;;;;;5012577;28;20460;-77
2021/01/28 09:26:37;;;;;;;2.80;1.77;;;4.90;94.80;;;;;;4996039;28;20819;-77
2021/01/28 09:29:19;;;;;;;2.90;1.40;;;4.90;94.80;;;;;;5002520;28;20756;-76
2021/01/28 09:31:46;;;;;;;6.17;3.67;;;4.90;94.80;;;;;;5022498;28;20468;-77
2021/01/28 09:34:27;;;;;;;3.50;2.53;;;4.90;94.80;;;;;;5014469;28;20414;-77
2021/01/28 09:37:03;;;;;;;3.43;2.20;;;5.00;94.90;;;;;;5015645;28;20425;-77
2021/01/28 09:39:47;;;;;;;2.93;1.90;;;5.00;94.90;;;;;;5013867;28;20436;-77
2021/01/28 09:42:30;;;;;;;2.17;1.43;;;5.00;94.90;;;;;;4993059;28;20462;-76
2021/01/28 09:45:08;;;;;;;4.80;1.97;;;5.00;94.90;;;;;;5007727;28;20410;-77
2021/01/28 09:47:34;;;;;;;2.80;1.87;;;5.10;95.00;;;;;;5014687;28;20420;-79
2021/01/28 09:50:07;;;;;;;3.83;2.07;;;5.10;94.90;;;;;;5018134;28;20745;-77
2021/01/28 09:52:36;;;;;;;4.43;2.20;;;5.10;94.80;;;;;;5011874;28;20593;-77
2021/01/28 09:55:13;;;;;;;4.57;1.80;;;5.10;94.80;;;;;;5000874;28;20500;-76
2021/01/28 09:57:39;;;;;;;6.70;1.77;;;5.10;94.80;;;;;;5026965;28;20986;-76
2021/01/28 10:00:09;;;;;;;3.60;2.17;;;5.10;94.80;;;;;;5021235;28;20426;-77
2021/01/28 10:02:48;;;;;;;4.53;2.00;;;5.10;94.80;;;;;;5029910;28;20520;-77
2021/01/28 10:05:18;;;;;;;3.20;1.83;;;5.10;94.80;;;;;;5014800;28;20393;-76
2021/01/28 10:07:45;;;;;;;3.93;2.70;;;5.10;94.80;;;;;;5014432;28;20398;-78
2021/01/28 10:10:11;;;;;;;4.13;2.00;;;5.20;94.90;;;;;;4998293;28;20418;-77
2021/01/28 10:12:37;;;;;;;5.13;1.93;;;5.20;94.80;;;;;;5018639;28;20425;-75
2021/01/28 10:15:04;;;;;;;2.93;1.97;;;5.20;94.90;;;;;;5024087;28;20406;-77
2021/01/28 10:17:30;;;;;;;3.40;2.00;;;5.20;94.90;;;;;;5013418;28;20436;-78
2021/01/28 10:19:56;;;;;;;3.80;1.93;;;5.20;94.80;;;;;;5016527;28;20457;-77
2021/01/28 10:22:22;;;;;;;2.23;1.53;;;5.20;94.90;;;;;;5030891;28;20523;-76
2021/01/28 10:24:49;;;;;;;4.80;1.90;;;5.20;94.90;;;;;;5018209;28;20171;-76
2021/01/28 10:27:16;;;;;;;4.13;1.77;;;5.30;95.00;;;;;;5019780;28;20430;-75
2021/01/28 10:29:43;;;;;;;4.27;1.97;;;5.30;95.00;;;;;;5013208;28;20445;-77
2021/01/28 10:32:11;;;;;;;2.83;1.83;;;5.40;95.00;;;;;;5013703;28;20477;-76
2021/01/28 10:34:37;;;;;;;4.00;2.10;;;5.40;94.80;;;;;;5013093;28;20426;-75
2021/01/28 10:37:04;;;;;;;3.23;2.30;;;5.40;94.90;;;;;;5032990;28;20808;-77
2021/01/28 10:39:30;;;;;;;2.80;2.07;;;5.50;94.80;;;;;;5032528;28;20387;-76
2021/01/28 10:41:56;;;;;;;4.33;2.53;;;5.50;94.90;;;;;;5027049;28;20470;-75
2021/01/28 10:44:23;;;;;;;4.20;2.83;;;5.60;95.00;;;;;;5037919;28;20167;-77
2021/01/28 10:46:49;;;;;;;12.97;2.93;;;5.70;94.90;;;;;;5027892;28;20171;-74
2021/01/28 10:49:15;;;;;;;3.90;2.17;;;5.80;95.00;;;;;;5025260;28;20445;-76
2021/01/28 10:51:41;;;;;;;5.13;3.23;;;5.80;94.80;;;;;;5015268;28;20782;-76
2021/01/28 10:54:07;;;;;;;10.20;2.90;;;5.90;94.80;;;;;;5021439;28;20445;-76
2021/01/28 10:56:33;;;;;;;6.80;3.63;;;6.00;94.80;;;;;;5023319;28;20433;-78
2021/01/28 10:58:59;;;;;;;3.33;2.43;;;6.00;94.40;;;;;;5011802;28;20426;-77
2021/01/28 11:01:25;;;;;;;6.80;3.20;;;6.10;94.20;;;;;;5014670;28;20302;-77
2021/01/28 11:03:51;;;;;;;5.30;2.83;;;6.00;94.10;;;;;;5014333;28;20426;-76
2021/01/28 11:06:16;;;;;;;4.93;2.20;;;6.00;94.30;;;;;;5013886;28;20313;-78
2021/01/28 11:08:42;;;;;;;5.27;2.27;;;6.00;94.10;;;;;;5005866;28;20222;-76
2021/01/28 11:11:09;;;;;;;4.20;2.60;;;6.00;94.20;;;;;;5006834;28;20254;-76
2021/01/28 11:13:35;;;;;;;5.03;2.90;;;6.10;94.40;;;;;;5013004;28;20182;-78
2021/01/28 11:16:01;;;;;;;4.40;2.63;;;6.10;94.30;;;;;;5012911;28;20425;-76
2021/01/28 11:18:26;;;;;;;5.30;3.40;;;6.10;94.20;;;;;;5012377;28;20202;-77
2021/01/28 11:20:53;;;;;;;5.20;3.03;;;6.10;94.20;;;;;;5013013;28;20445;-76
2021/01/28 11:23:19;;;;;;;5.17;3.03;;;6.10;94.30;;;;;;5014966;28;20279;-76
2021/01/28 11:25:44;;;;;;;4.30;2.70;;;6.10;94.60;;;;;;5011567;28;20449;-77
2021/01/28 11:28:10;;;;;;;6.07;2.70;;;6.20;94.60;;;;;;4995047;28;20214;-77
2021/01/28 11:30:36;;;;;;;4.10;2.70;;;6.20;94.30;;;;;;5012826;28;20259;-76
2021/01/28 11:33:05;;;;;;;6.37;3.20;;;6.20;94.40;;;;;;4995848;28;20198;-78
2021/01/28 11:35:34;;;;;;;5.40;2.97;;;6.20;94.40;;;;;;5013282;28;20238;-77
2021/01/28 11:38:02;;;;;;;4.23;3.07;;;6.20;94.40;;;;;;5016068;28;20429;-77
2021/01/28 11:40:30;;;;;;;4.70;3.03;;;6.20;94.40;;;;;;4997876;28;20461;-77
2021/01/28 11:42:56;;;;;;;4.40;2.30;;;6.20;94.40;;;;;;5016710;28;20433;-77
2021/01/28 11:45:26;;;;;;;4.30;2.93;;;6.20;94.40;;;;;;5014573;28;20488;-76
2021/01/28 11:47:51;;;;;;;4.73;2.50;;;6.20;94.40;;;;;;5012588;28;20440;-77
2021/01/28 11:50:18;;;;;;;5.90;3.20;;;6.20;94.50;;;;;;5010267;28;20434;-77
2021/01/28 11:52:44;;;;;;;4.57;2.40;;;6.20;94.60;;;;;;5010942;28;20206;-79
2021/01/28 11:55:15;;;;;;;5.23;3.43;;;6.20;94.50;;;;;;5014432;28;20534;-77
2021/01/28 11:57:41;;;;;;;4.30;3.13;;;6.30;94.60;;;;;;5014423;28;20421;-77
2021/01/28 12:00:09;;;;;;;5.63;3.80;;;6.30;94.80;;;;;;5015170;28;20426;-78
2021/01/28 12:02:38;;;;;;;4.33;3.03;;;6.40;94.80;;;;;;5015499;28;20270;-78
2021/01/28 12:05:05;;;;;;;7.83;3.37;;;6.40;94.80;;;;;;5013075;28;20430;-78
2021/01/28 12:07:31;;;;;;;8.00;4.27;;;6.50;94.80;;;;;;5012621;28;20418;-79
2021/01/28 12:09:57;;;;;;;5.33;3.67;;;6.50;94.80;;;;;;5001129;28;20414;-79
2021/01/28 12:12:22;;;;;;;5.00;2.87;;;6.60;94.80;;;;;;5029635;28;21224;-80
2021/01/28 12:14:48;;;;;;;4.40;2.67;;;6.60;94.60;;;;;;5019028;28;20171;-77
2021/01/28 12:17:14;;;;;;;3.37;2.60;;;6.70;94.60;;;;;;5026423;28;20206;-79
2021/01/28 12:19:40;;;;;;;3.60;2.70;;;6.70;94.60;;;;;;5015230;28;20265;-78
2021/01/28 12:22:07;;;;;;;3.70;2.50;;;6.70;94.70;;;;;;5019383;28;20710;-79
2021/01/28 12:24:33;;;;;;;2.63;2.30;;;6.70;94.50;;;;;;5014173;28;20155;-79
2021/01/28 12:27:01;;;;;;;3.70;2.47;;;6.60;94.40;;;;;;4999118;28;21241;-78
2021/01/28 12:29:27;;;;;;;3.27;2.60;;;6.60;94.40;;;;;;4997687;28;20498;-77
2021/01/28 12:31:53;;;;;;;5.30;3.57;;;6.50;94.50;;;;;;5013424;28;20594;-77
2021/01/28 12:34:21;;;;;;;3.20;2.10;;;6.50;94.70;;;;;;5015556;28;20521;-80
2021/01/28 12:36:48;;;;;;;3.87;2.70;;;6.60;94.90;;;;;;5016563;28;20204;-80
2021/01/28 12:39:15;;;;;;;4.37;2.27;;;6.60;94.90;;;;;;5018955;28;20513;-78
2021/01/28 12:41:41;;;;;;;4.53;3.20;;;6.60;95.00;;;;;;5020957;28;20476;-79
2021/01/28 12:44:06;;;;;;;3.80;2.80;;;6.60;95.00;;;;;;5021719;28;20421;-79
2021/01/28 12:46:32;;;;;;;5.30;3.33;;;6.60;95.00;;;;;;5001523;28;20789;-78
2021/01/28 12:48:58;;;;;;;6.27;3.50;;;6.60;95.00;;;;;;5013413;28;20171;-78
2021/01/28 12:51:24;;;;;;;5.40;3.73;;;6.70;95.10;;;;;;5019918;28;20371;-79
2021/01/28 12:53:49;;;;;;;5.37;3.20;;;6.70;95.00;;;;;;5023744;28;20186;-76
2021/01/28 12:56:15;;;;;;;6.07;3.20;;;6.70;95.00;;;;;;5020015;28;20633;-79
2021/01/28 12:58:41;;;;;;;3.23;2.83;;;6.80;95.00;;;;;;5023643;28;20183;-77
2021/01/28 13:01:07;;;;;;;5.43;3.20;;;6.80;94.90;;;;;;5016605;28;20484;-79
2021/01/28 13:03:32;;;;;;;5.90;3.33;;;6.80;95.00;;;;;;4994206;28;20191;-79
2021/01/28 13:05:58;;;;;;;7.77;2.90;;;6.80;94.90;;;;;;5017161;28;20207;-79
2021/01/28 13:08:24;;;;;;;5.20;3.30;;;6.90;95.00;;;;;;5025520;28;20587;-76
2021/01/28 13:10:51;;;;;;;5.33;2.50;;;6.90;95.00;;;;;;5012005;28;20943;-79
2021/01/28 13:13:17;;;;;;;5.67;2.87;;;6.90;95.00;;;;;;5017509;28;20446;-80
2021/01/28 13:15:43;;;;;;;4.47;2.63;;;6.90;94.90;;;;;;5021070;28;20473;-80
2021/01/28 13:18:09;;;;;;;17.90;10.53;;;6.90;94.80;;;;;;5019556;28;20205;-80
2021/01/28 13:20:34;;;;;;;7.17;3.57;;;6.90;94.80;;;;;;5002083;28;20449;-79
2021/01/28 13:23:01;;;;;;;5.00;3.50;;;6.90;94.80;;;;;;5020768;28;20194;-77
2021/01/28 13:25:27;;;;;;;3.60;2.37;;;6.80;94.70;;;;;;5020855;28;20174;-80
2021/01/28 13:27:53;;;;;;;4.70;2.80;;;6.80;94.80;;;;;;5020634;28;20440;-78
2021/01/28 13:30:21;;;;;;;4.50;2.80;;;6.80;94.90;;;;;;5020147;28;20426;-80
2021/01/28 13:32:47;;;;;;;9.97;3.43;;;6.80;95.00;;;;;;5019516;28;20437;-78
2021/01/28 13:35:17;;;;;;;7.17;4.67;;;6.80;95.10;;;;;;5021346;28;20533;-79
2021/01/28 13:37:46;;;;;;;6.07;4.33;;;6.80;95.10;;;;;;5003078;28;20171;-79